Etusivu
METAR-TAF:

METAR-TAF

Lentoasemat :

Visby, Gotland, Ruotsi

Visbyn lentoasema

Leveyspiiri: 57-40N, Pituuspiiri: 018-21E, korkeus merenpinnasta: 51 m

Tämänhetkinen sää

Tämä raportti tehtiin 32 minuuttia sitten, kello 20.20 UTC
Tuuli 7 kn etelästä
Lämpötila 10°C
Kosteus 82%
Ilmanpaine 1021 hPa
Näkyvyys 10 km tai enemmän

METAR: ESSV 262020Z AUTO 17007KT 9999 NCD 10/07 Q1021

Aika: 22:52 (20:52 UTC)

Sääennuste

Tämä raportti tehtiin 3 tuntia ja 22 minuuttia sitten, kello 17.30 UTC
Ennuste voimassa 26. päivästä klo 18 UTC - 26. päivään klo 21 UTC
Tuuli 6 kn idästä
Näkyvyys 10 km tai enemmän
ei pilviä alle 1500 m:ssä eikä cumulonimbus-pilviä

TAF: ESSV 261730Z 2618/2621 08006KT CAVOK

Säähavainnot ja -ennusteet yli 4000 lentoasemalta (METAR- ja TAF-raportit).

Käytössä olevat sääasemat on merkitty karttaan keltaisilla ja punaisilla pisteillä.

Aseta hiiri pisteen päälle nähdäksesi sääaseman nimen.

Klikkaa sitten nähdäksesi säähavainnot ja -ennusteet.

Kartan vaihtaminen: klikkaa mustalla rastilla varustettuja vihreitä pisteitä, niin voit zoomata sisään; viivalla varustettua vihreää pistettä, niin voit zoomata ulos tai vihreitä nuolia, niin pääset viereisille kartoille.


METAR-TAF: